Time;durP1;ratioP1;P1;durP2;ratioP2;P2;SDS_P1;SDS_P2;PMS_P1;PMS_P2;Temp;Humidity;BMP_temperature;BMP_pressure;BME280_temperature;BME280_humidity;BME280_pressure;Samples;Min_cycle;Max_cycle;Signal;HPM_P1;HPM_P2
2024/03/12 00:00:59;;;;;;;17.40;5.88;;;;;;;14.07;57.39;100692.31;5007161;28;97416;-72
2024/03/12 00:03:27;;;;;;;11.50;5.50;;;;;;;14.09;57.18;100689.56;5008468;28;98813;-71
2024/03/12 00:05:57;;;;;;;12.43;5.05;;;;;;;14.18;57.15;100689.94;5011928;28;98836;-72
2024/03/12 00:08:24;;;;;;;11.63;5.35;;;;;;;14.38;56.36;100690.75;5006985;28;96873;-71
2024/03/12 00:10:50;;;;;;;9.93;5.63;;;;;;;14.24;56.68;100692.28;5009929;28;97333;-70
2024/03/12 00:13:16;;;;;;;11.27;5.55;;;;;;;13.98;57.36;100698.94;5003001;28;99894;-70
2024/03/12 00:15:43;;;;;;;8.38;5.10;;;;;;;14.52;56.21;100694.41;5012124;28;99136;-71
2024/03/12 00:18:10;;;;;;;12.65;5.55;;;;;;;14.64;55.80;100698.22;5011528;28;97070;-70
2024/03/12 00:20:39;;;;;;;9.85;5.72;;;;;;;14.53;55.95;100690.81;5008229;28;96853;-71
2024/03/12 00:23:07;;;;;;;11.65;5.40;;;;;;;14.27;57.35;100701.91;5008218;28;99286;-71
2024/03/12 00:25:34;;;;;;;11.55;5.43;;;;;;;14.00;58.35;100703.31;5009381;28;98898;-72
2024/03/12 00:28:01;;;;;;;11.98;5.30;;;;;;;13.27;61.55;100696.28;5004411;28;97900;-71
2024/03/12 00:30:30;;;;;;;10.20;5.60;;;;;;;13.83;59.32;100688.22;5008275;28;97482;-71
2024/03/12 00:32:57;;;;;;;8.00;5.20;;;;;;;13.79;59.20;100689.28;5008121;28;99805;-70
2024/03/12 00:35:28;;;;;;;12.23;5.35;;;;;;;13.43;60.23;100691.97;5000009;28;99871;-70
2024/03/12 00:37:56;;;;;;;7.32;4.75;;;;;;;13.72;59.41;100686.09;5003758;28;96939;-71
2024/03/12 00:40:33;;;;;;;10.95;5.68;;;;;;;13.89;58.84;100687.91;5010571;28;98576;-71
2024/03/12 00:42:59;;;;;;;9.70;5.00;;;;;;;14.07;58.49;100691.44;5008382;28;101482;-70
2024/03/12 00:45:29;;;;;;;9.50;5.47;;;;;;;13.99;58.45;100691.81;5002302;28;98736;-71
2024/03/12 00:47:57;;;;;;;8.85;5.18;;;;;;;13.63;59.71;100691.88;5007736;28;96926;-70
2024/03/12 00:50:23;;;;;;;8.77;5.55;;;;;;;13.97;58.40;100691.06;5008862;28;98519;-70
2024/03/12 00:52:53;;;;;;;8.82;5.20;;;;;;;13.89;58.68;100695.88;5009059;28;98937;-71
2024/03/12 00:55:20;;;;;;;11.93;5.65;;;;;;;13.52;59.34;100689.72;5011590;28;99241;-70
2024/03/12 00:57:50;;;;;;;7.55;5.38;;;;;;;13.25;60.80;100685.75;5009335;28;97206;-70
2024/03/12 01:00:19;;;;;;;9.90;5.00;;;;;;;12.75;63.09;100686.25;5007312;28;96912;-69
2024/03/12 01:02:49;;;;;;;11.05;5.68;;;;;;;12.54;63.79;100695.16;5010154;28;99516;-69
2024/03/12 01:05:17;;;;;;;13.27;5.60;;;;;;;12.53;63.87;100697.91;5002886;28;99110;-70
2024/03/12 01:07:45;;;;;;;8.43;5.20;;;;;;;12.52;64.29;100702.34;5009082;28;97284;-70
2024/03/12 01:10:11;;;;;;;6.78;4.95;;;;;;;12.45;64.00;100702.66;5001129;28;97411;-70
2024/03/12 01:12:39;;;;;;;7.47;4.97;;;;;;;12.44;64.13;100695.66;5004560;28;98932;-69
2024/03/12 01:15:09;;;;;;;7.70;5.07;;;;;;;12.38;64.68;100697.63;5003643;28;97879;-70
2024/03/12 01:17:37;;;;;;;7.05;4.75;;;;;;;12.22;65.60;100701.88;5000641;28;97512;-70
2024/03/12 01:20:09;;;;;;;6.50;4.70;;;;;;;12.21;65.98;100705.44;5003908;28;97142;-69
2024/03/12 01:22:36;;;;;;;9.35;5.00;;;;;;;12.16;65.73;100702.13;5003790;28;102577;-69
2024/03/12 01:25:02;;;;;;;7.03;4.60;;;;;;;12.24;65.60;100709.75;5001196;28;99384;-69
2024/03/12 01:27:29;;;;;;;8.55;5.55;;;;;;;12.22;65.57;100711.59;5004588;28;97007;-69
2024/03/12 01:29:57;;;;;;;10.35;5.00;;;;;;;12.15;65.48;100699.53;5008577;28;98279;-69
2024/03/12 01:32:25;;;;;;;7.93;5.15;;;;;;;12.17;65.29;100698.56;5008475;28;99940;-72
2024/03/12 01:34:51;;;;;;;7.30;4.80;;;;;;;12.16;64.86;100704.78;5004817;28;101569;-70
2024/03/12 01:37:24;;;;;;;7.10;5.28;;;;;;;12.16;65.05;100702.13;5008518;28;96806;-70
2024/03/12 01:39:52;;;;;;;10.25;5.20;;;;;;;12.14;64.95;100703.97;4999565;28;97189;-70
2024/03/12 01:42:20;;;;;;;8.02;5.30;;;;;;;12.05;64.87;100701.72;5005671;28;99268;-70
2024/03/12 01:44:48;;;;;;;7.88;5.25;;;;;;;12.04;65.27;100702.66;5003720;28;99334;-70
2024/03/12 01:47:14;;;;;;;9.00;5.03;;;;;;;12.18;64.62;100708.25;5001021;28;97222;-70
2024/03/12 01:49:42;;;;;;;8.95;5.78;;;;;;;11.82;65.75;100701.81;5006530;28;96918;-70
2024/03/12 01:52:09;;;;;;;7.80;5.43;;;;;;;12.19;64.71;100707.31;5009849;28;100522;-70
2024/03/12 01:54:35;;;;;;;8.90;5.50;;;;;;;12.34;64.16;100706.63;5002235;28;98942;-70
2024/03/12 01:57:02;;;;;;;11.75;5.50;;;;;;;12.20;64.37;100703.75;4999601;28;99301;-71
2024/03/12 01:59:28;;;;;;;9.82;5.80;;;;;;;12.28;64.08;100700.75;5001803;28;97184;-70
2024/03/12 02:01:59;;;;;;;10.98;5.93;;;;;;;12.15;64.46;100708.34;5013174;27;99118;-71
2024/03/12 02:04:26;;;;;;;8.75;5.10;;;;;;;12.18;64.66;100707.38;5009458;28;97871;-70
2024/03/12 02:06:53;;;;;;;11.80;5.50;;;;;;;12.14;64.64;100709.28;5002145;28;96899;-69
2024/03/12 02:09:21;;;;;;;10.35;5.72;;;;;;;12.19;64.36;100703.81;4999376;28;96860;-70
2024/03/12 02:11:47;;;;;;;9.55;5.60;;;;;;;12.32;64.04;100705.00;5001929;28;99164;-70
2024/03/12 02:14:16;;;;;;;11.73;5.68;;;;;;;12.57;63.21;100702.13;5000056;28;99144;-70
2024/03/12 02:16:43;;;;;;;11.43;5.60;;;;;;;12.71;62.66;100705.03;5006886;28;99998;-70
2024/03/12 02:19:09;;;;;;;9.30;5.22;;;;;;;12.86;62.08;100701.69;5003879;28;97457;-70
2024/03/12 02:21:36;;;;;;;8.90;5.35;;;;;;;12.66;62.42;100697.28;5010033;28;99484;-71
2024/03/12 02:24:03;;;;;;;10.95;5.72;;;;;;;12.58;62.62;100702.06;5006805;28;99308;-71
2024/03/12 02:26:31;;;;;;;13.98;5.20;;;;;;;12.52;62.99;100698.81;5004266;28;96745;-71
2024/03/12 02:28:57;;;;;;;11.27;5.63;;;;;;;12.34;63.46;100692.53;4998492;28;96996;-70
2024/03/12 02:31:24;;;;;;;9.98;6.05;;;;;;;12.28;64.36;100703.38;5008145;28;99159;-70
2024/03/12 02:33:52;;;;;;;9.32;5.32;;;;;;;12.26;63.84;100699.97;5010214;28;98856;-70
2024/03/12 02:36:20;;;;;;;13.10;5.55;;;;;;;12.21;64.18;100699.28;5010735;28;96827;-70
2024/03/12 02:38:46;;;;;;;9.30;4.95;;;;;;;12.32;64.18;100697.91;5011390;28;98954;-70
2024/03/12 02:41:14;;;;;;;10.63;5.72;;;;;;;12.14;64.70;100703.16;5010781;28;102026;-71
2024/03/12 02:43:41;;;;;;;9.20;5.75;;;;;;;12.18;65.11;100708.25;5010575;28;98811;-69
2024/03/12 02:46:08;;;;;;;12.40;6.18;;;;;;;12.17;64.79;100708.28;5005309;28;96936;-70
2024/03/12 02:48:35;;;;;;;9.23;5.85;;;;;;;12.13;65.09;100704.06;5011571;27;98563;-70
2024/03/12 02:51:01;;;;;;;9.80;5.82;;;;;;;12.05;65.74;100703.53;5007736;28;98896;-70
2024/03/12 02:53:27;;;;;;;9.85;5.03;;;;;;;12.06;65.73;100707.91;5005259;28;98890;-70
2024/03/12 02:55:54;;;;;;;13.48;5.72;;;;;;;12.08;65.31;100714.00;5005384;28;97257;-70
2024/03/12 02:58:25;;;;;;;9.63;5.95;;;;;;;11.94;65.90;100712.78;5005977;28;98156;-71
2024/03/12 03:00:53;;;;;;;12.85;5.32;;;;;;;12.00;66.05;100714.31;5010315;28;99575;-70
2024/03/12 03:03:20;;;;;;;10.73;5.68;;;;;;;11.76;67.11;100708.22;5009330;28;101756;-73
2024/03/12 03:05:46;;;;;;;9.75;5.90;;;;;;;12.02;66.47;100715.09;5009784;28;97057;-70
2024/03/12 03:08:12;;;;;;;9.68;5.90;;;;;;;11.95;66.62;100710.97;5004309;28;97292;-71
2024/03/12 03:10:39;;;;;;;11.85;5.65;;;;;;;11.96;66.70;100710.06;5010067;28;99379;-69
2024/03/12 03:13:06;;;;;;;10.25;5.85;;;;;;;12.01;66.57;100716.03;5009616;28;102016;-69
2024/03/12 03:15:34;;;;;;;11.32;5.68;;;;;;;12.06;66.16;100719.34;5007541;28;97892;-71
2024/03/12 03:18:01;;;;;;;12.57;6.20;;;;;;;12.14;65.66;100719.88;5009817;28;97922;-71
2024/03/12 03:20:27;;;;;;;11.50;5.78;;;;;;;11.81;66.38;100718.66;5007016;28;98690;-71
2024/03/12 03:22:53;;;;;;;10.13;5.60;;;;;;;11.66;67.19;100722.75;5001910;28;98242;-70
2024/03/12 03:25:20;;;;;;;10.32;5.63;;;;;;;11.42;69.20;100726.38;5009691;28;96960;-70
2024/03/12 03:27:46;;;;;;;8.52;5.55;;;;;;;11.73;68.83;100729.50;5008843;28;100895;-71
2024/03/12 03:30:17;;;;;;;11.40;5.47;;;;;;;11.78;68.62;100724.91;5009850;28;98168;-70
2024/03/12 03:32:45;;;;;;;12.52;6.05;;;;;;;11.71;68.75;100735.78;5009666;28;99506;-70
2024/03/12 03:35:13;;;;;;;9.60;4.97;;;;;;;11.71;68.75;100730.50;5011673;28;97227;-71
2024/03/12 03:37:40;;;;;;;11.60;5.93;;;;;;;11.70;67.97;100729.63;5006822;28;96796;-71
2024/03/12 03:40:09;;;;;;;8.98;5.25;;;;;;;11.59;68.68;100731.84;5005072;28;99521;-70
2024/03/12 03:42:36;;;;;;;10.05;5.95;;;;;;;12.08;66.96;100733.38;5008518;28;99334;-71
2024/03/12 03:45:02;;;;;;;8.20;5.50;;;;;;;12.01;66.91;100736.38;5007889;28;99312;-71
2024/03/12 03:47:34;;;;;;;8.48;5.15;;;;;;;11.93;67.11;100736.69;5013071;28;97324;-70
2024/03/12 03:50:03;;;;;;;9.05;5.95;;;;;;;11.91;67.06;100738.50;5001811;28;98893;-71
2024/03/12 03:52:30;;;;;;;8.05;5.50;;;;;;;12.15;66.14;100741.91;5005900;28;98802;-71
2024/03/12 03:54:56;;;;;;;8.10;5.40;;;;;;;12.14;65.88;100735.75;5004536;28;97216;-71
2024/03/12 03:57:32;;;;;;;11.55;5.63;;;;;;;12.11;66.31;100738.56;5010322;28;97189;-70
2024/03/12 03:59:58;;;;;;;9.93;5.45;;;;;;;12.23;65.59;100743.34;5008650;28;99131;-70
2024/03/12 04:02:24;;;;;;;12.55;6.22;;;;;;;12.08;65.91;100749.25;5010775;28;99262;-70
2024/03/12 04:04:51;;;;;;;15.38;6.68;;;;;;;12.06;66.11;100748.50;5012810;28;96786;-71
2024/03/12 04:07:19;;;;;;;12.35;5.70;;;;;;;12.06;66.39;100750.28;5008724;28;97109;-71
2024/03/12 04:09:46;;;;;;;10.35;5.45;;;;;;;12.17;66.25;100746.25;4998705;28;98867;-71
2024/03/12 04:12:13;;;;;;;7.93;5.60;;;;;;;12.27;65.85;100750.22;5005154;28;99402;-71
2024/03/12 04:14:41;;;;;;;11.75;5.72;;;;;;;12.27;66.06;100757.31;5009493;28;97107;-71
2024/03/12 04:17:08;;;;;;;11.05;6.25;;;;;;;12.35;65.71;100753.41;5010259;28;96887;-71
2024/03/12 04:19:35;;;;;;;12.90;5.90;;;;;;;12.23;66.24;100756.56;5007701;28;99313;-72
2024/03/12 04:22:01;;;;;;;12.75;6.60;;;;;;;12.27;65.81;100762.63;5010274;28;99933;-71
2024/03/12 04:24:29;;;;;;;14.60;6.03;;;;;;;12.21;65.52;100768.16;5003838;28;98071;-71
2024/03/12 04:26:56;;;;;;;8.43;6.05;;;;;;;12.05;66.37;100770.59;5009144;28;96930;-71
2024/03/12 04:29:22;;;;;;;8.73;5.63;;;;;;;12.05;66.58;100762.66;5002588;28;99228;-71
2024/03/12 04:31:48;;;;;;;10.80;6.28;;;;;;;12.01;66.30;100771.66;5009857;28;99019;-71
2024/03/12 04:34:14;;;;;;;10.13;5.65;;;;;;;11.98;66.81;100771.78;5007428;28;96860;-70
2024/03/12 04:36:41;;;;;;;9.68;5.65;;;;;;;11.96;67.19;100776.25;5003436;28;98963;-72
2024/03/12 04:39:30;;;;;;;9.15;5.75;;;;;;;11.91;67.75;100771.16;5002924;28;99116;-71
2024/03/12 04:41:59;;;;;;;7.50;5.50;;;;;;;11.88;67.65;100775.72;5005651;28;99368;-71
2024/03/12 04:44:26;;;;;;;11.35;5.65;;;;;;;11.93;67.54;100781.69;5006785;28;98368;-70
2024/03/12 04:46:52;;;;;;;8.18;5.30;;;;;;;11.81;67.70;100779.53;5001573;28;96959;-71
2024/03/12 04:49:18;;;;;;;9.15;5.45;;;;;;;11.91;66.97;100786.19;5005265;28;98988;-71
2024/03/12 04:51:45;;;;;;;9.00;5.97;;;;;;;11.84;67.37;100779.41;5004820;28;98078;-72
2024/03/12 04:54:12;;;;;;;10.60;5.20;;;;;;;11.76;67.62;100779.69;5000443;28;96764;-72
2024/03/12 04:56:38;;;;;;;10.43;6.60;;;;;;;11.52;69.43;100784.16;5006728;28;97198;-71
2024/03/12 04:59:06;;;;;;;11.88;5.75;;;;;;;11.48;69.49;100787.84;5006882;28;99112;-71
2024/03/12 05:01:33;;;;;;;12.82;5.95;;;;;;;11.63;68.63;100786.38;5005821;28;99066;-71
2024/03/12 05:03:59;;;;;;;7.35;5.43;;;;;;;11.59;68.96;100785.63;5008965;28;97927;-71
2024/03/12 05:06:26;;;;;;;8.50;6.25;;;;;;;11.62;68.55;100789.94;5008946;28;97073;-71
2024/03/12 05:11:42;;;;;;;11.00;5.97;;;;;;;11.92;67.33;100795.84;4992851;28;97248;-72
2024/03/12 05:14:10;;;;;;;9.32;5.78;;;;;;;11.82;67.61;100803.28;5011487;28;99094;-72
2024/03/12 05:16:36;;;;;;;14.10;6.38;;;;;;;11.71;68.14;100802.81;5011090;28;98249;-71
2024/03/12 05:19:03;;;;;;;13.63;6.20;;;;;;;11.53;68.38;100796.47;5003175;28;99418;-71
2024/03/12 05:21:29;;;;;;;8.60;5.93;;;;;;;11.65;68.57;100802.19;5007402;28;98796;-71
2024/03/12 05:23:56;;;;;;;8.00;5.65;;;;;;;11.80;68.30;100804.28;5007667;28;97055;-71
2024/03/12 05:26:26;;;;;;;9.60;5.88;;;;;;;11.91;67.27;100810.88;5007569;28;96871;-71
2024/03/12 05:28:52;;;;;;;9.70;5.60;;;;;;;11.82;67.81;100808.56;5001550;28;99277;-70
2024/03/12 05:31:29;;;;;;;11.18;5.38;;;;;;;11.76;67.83;100805.31;5005971;28;98943;-70
2024/03/12 05:33:55;;;;;;;9.52;5.75;;;;;;;11.67;68.39;100808.31;5003441;28;96908;-71
2024/03/12 05:36:24;;;;;;;13.57;5.68;;;;;;;11.83;68.31;100812.97;5012690;28;97164;-70
2024/03/12 05:39:03;;;;;;;9.35;5.20;;;;;;;11.75;68.51;100808.91;5006608;28;99450;-69
2024/03/12 05:41:40;;;;;;;10.07;5.72;;;;;;;11.71;68.70;100813.41;5008008;28;99003;-70
2024/03/12 05:49:44;;;;;;;8.88;5.60;;;;;;;11.59;68.98;100817.41;5001591;28;98399;-70
2024/03/12 05:52:12;;;;;;;8.85;5.68;;;;;;;11.67;68.67;100818.91;5001410;28;97655;-70
2024/03/12 05:54:38;;;;;;;15.07;5.82;;;;;;;11.81;68.13;100828.06;5007582;28;96877;-70
2024/03/12 05:57:05;;;;;;;9.65;5.90;;;;;;;11.97;67.42;100823.00;5006620;28;96829;-71
2024/03/12 05:59:31;;;;;;;10.05;5.50;;;;;;;12.00;66.87;100833.50;5006543;28;99328;-71
2024/03/12 06:01:58;;;;;;;11.73;5.35;;;;;;;11.93;66.71;100835.53;5001397;28;98819;-71
2024/03/12 06:04:31;;;;;;;8.02;5.45;;;;;;;12.03;66.65;100830.69;5005261;28;96894;-72
2024/03/12 06:06:58;;;;;;;10.95;5.45;;;;;;;12.07;65.51;100840.28;5007808;28;96856;-71
2024/03/12 06:09:25;;;;;;;9.27;5.32;;;;;;;12.11;65.42;100836.56;5003409;28;98961;-71
2024/03/12 06:11:51;;;;;;;11.43;5.38;;;;;;;12.03;65.36;100843.06;5008271;28;99239;-71
2024/03/12 06:14:18;;;;;;;6.75;4.75;;;;;;;12.18;65.22;100851.28;5010032;28;98665;-72
2024/03/12 06:16:46;;;;;;;9.40;4.88;;;;;;;12.30;64.77;100853.44;5010309;28;96810;-72
2024/03/12 06:19:13;;;;;;;10.25;4.78;;;;;;;12.36;64.21;100850.53;5010810;28;99038;-71
2024/03/12 06:21:42;;;;;;;7.38;4.95;;;;;;;12.28;64.57;100855.28;5007728;28;98982;-71
2024/03/12 06:24:09;;;;;;;9.43;4.90;;;;;;;12.34;64.76;100855.00;5009649;28;97426;-71
2024/03/12 06:26:36;;;;;;;6.82;5.38;;;;;;;12.45;63.39;100853.72;5002594;28;97086;-72
2024/03/12 06:29:02;;;;;;;9.35;5.57;;;;;;;12.21;64.14;100858.22;5006546;28;99058;-73
2024/03/12 06:31:29;;;;;;;12.02;5.45;;;;;;;12.53;63.64;100865.75;5008242;28;98837;-72
2024/03/12 06:33:55;;;;;;;10.23;5.32;;;;;;;12.66;62.73;100864.31;5011104;28;96925;-71
2024/03/12 06:36:32;;;;;;;;;;;;;;;;;;;;;
2024/03/12 06:39:00;;;;;;;7.80;5.35;;;;;;;12.85;62.98;100864.38;5004875;28;127884;-70
2024/03/12 06:41:27;;;;;;;13.73;5.40;;;;;;;13.11;61.77;100866.78;5006776;28;99094;-71
2024/03/12 06:43:53;;;;;;;14.20;5.75;;;;;;;13.21;61.81;100863.72;5010015;28;97801;-71
2024/03/12 06:46:19;;;;;;;9.90;5.82;;;;;;;13.29;61.07;100867.78;5003233;28;96880;-72
2024/03/12 06:48:47;;;;;;;8.52;6.07;;;;;;;13.41;60.87;100876.97;5003421;28;99317;-72
2024/03/12 06:51:13;;;;;;;11.35;5.82;;;;;;;13.22;60.75;100874.28;5010523;28;97812;-71
2024/03/12 06:53:40;;;;;;;14.05;5.90;;;;;;;13.37;60.74;100867.44;5008038;28;99001;-72
2024/03/12 06:56:11;;;;;;;8.40;5.80;;;;;;;13.50;59.44;100871.25;5009587;28;96998;-72
2024/03/12 06:58:44;;;;;;;11.82;5.40;;;;;;;13.58;59.04;100874.44;5007970;28;99003;-72
2024/03/12 07:01:12;;;;;;;15.52;6.18;;;;;;;13.57;59.10;100875.34;5008773;28;99036;-71
2024/03/12 07:03:39;;;;;;;12.80;5.90;;;;;;;13.52;59.10;100880.03;5007654;28;96953;-71
2024/03/12 07:06:07;;;;;;;13.00;5.70;;;;;;;13.39;59.41;100889.47;5007968;28;97859;-71
2024/03/12 07:08:33;;;;;;;9.95;5.60;;;;;;;13.43;58.98;100883.06;4997021;28;98962;-71
2024/03/12 07:11:01;;;;;;;11.07;6.60;;;;;;;13.56;59.06;100881.59;5001359;28;100752;-71
2024/03/12 07:13:29;;;;;;;9.45;6.00;;;;;;;13.45;58.95;100882.09;5002692;28;97500;-70
2024/03/12 07:15:55;;;;;;;10.65;6.13;;;;;;;13.46;59.40;100889.09;5003513;28;97000;-71
2024/03/12 07:18:23;;;;;;;11.68;6.28;;;;;;;13.39;59.45;100887.66;4997947;28;98931;-70
2024/03/12 07:20:52;;;;;;;10.32;6.47;;;;;;;13.53;59.12;100892.34;5002923;28;101583;-71
2024/03/12 07:23:18;;;;;;;9.32;6.10;;;;;;;13.77;58.13;100891.22;4995582;28;98769;-70
2024/03/12 07:25:45;;;;;;;10.30;6.05;;;;;;;13.90;57.62;100903.00;5005842;28;98123;-71
2024/03/12 07:28:12;;;;;;;10.00;6.10;;;;;;;14.16;57.04;100887.63;5003166;28;100022;-70
2024/03/12 07:30:40;;;;;;;12.45;6.70;;;;;;;14.46;55.62;100887.94;5002410;28;101310;-71
2024/03/12 07:33:07;;;;;;;10.82;6.00;;;;;;;14.29;55.75;100897.59;5004643;28;99392;-71
2024/03/12 07:35:33;;;;;;;11.60;6.95;;;;;;;14.49;54.85;100894.00;5003116;28;98498;-71
2024/03/12 07:38:02;;;;;;;13.05;6.88;;;;;;;14.70;54.13;100895.56;5005274;28;99958;-72
2024/03/12 07:40:29;;;;;;;13.23;6.68;;;;;;;14.67;54.17;100900.19;5002987;28;99157;-71
2024/03/12 07:42:56;;;;;;;9.80;6.45;;;;;;;14.95;53.42;100905.84;5003758;28;98131;-70
2024/03/12 07:45:24;;;;;;;8.30;6.35;;;;;;;15.04;52.78;100908.03;5005075;28;96966;-71
2024/03/12 07:47:52;;;;;;;12.80;7.20;;;;;;;15.16;52.67;100906.56;5006194;28;99213;-71
2024/03/12 07:50:19;;;;;;;13.93;6.65;;;;;;;15.17;52.08;100905.59;5005396;28;97435;-73
2024/03/12 07:52:46;;;;;;;14.27;7.03;;;;;;;14.66;52.68;100907.31;5004584;28;98891;-70
2024/03/12 07:55:12;;;;;;;10.77;6.28;;;;;;;14.59;52.82;100905.88;5003004;28;96827;-72
2024/03/12 07:57:39;;;;;;;8.98;6.30;;;;;;;14.67;52.91;100905.50;5006650;28;100505;-72
2024/03/12 08:00:14;;;;;;;10.15;6.45;;;;;;;15.04;51.99;100910.69;5004930;28;98953;-71
2024/03/12 08:02:41;;;;;;;10.85;6.90;;;;;;;15.02;52.23;100911.72;5006394;28;100845;-72
2024/03/12 08:05:10;;;;;;;11.57;6.75;;;;;;;15.46;50.63;100912.94;5000200;28;97766;-71
2024/03/12 08:07:37;;;;;;;8.63;6.28;;;;;;;15.38;50.54;100911.59;5009647;28;99483;-72
2024/03/12 08:10:05;;;;;;;12.93;6.28;;;;;;;15.79;49.76;100912.09;5005051;28;97680;-73
2024/03/12 08:12:31;;;;;;;10.25;6.55;;;;;;;15.78;49.51;100908.56;5006474;28;97664;-72
2024/03/12 08:14:58;;;;;;;10.15;7.18;;;;;;;15.53;50.12;100909.03;5008768;28;97042;-73
2024/03/12 08:17:26;;;;;;;8.48;6.13;;;;;;;15.69;49.45;100918.84;4998312;28;99173;-71
2024/03/12 08:19:52;;;;;;;15.93;6.60;;;;;;;15.57;50.16;100916.84;5003075;28;100517;-71
2024/03/12 08:22:22;;;;;;;10.63;6.40;;;;;;;16.24;48.60;100911.34;5005069;28;101775;-71
2024/03/12 08:24:50;;;;;;;14.60;6.97;;;;;;;16.00;48.44;100913.59;5010467;28;97118;-70
2024/03/12 08:30:37;;;;;;;10.90;6.88;;;;;;;16.41;47.40;100921.09;4994511;28;97296;-71
2024/03/12 08:33:05;;;;;;;9.65;6.93;;;;;;;16.51;47.10;100908.94;4991573;27;97705;-72
2024/03/12 08:35:32;;;;;;;14.30;7.07;;;;;;;16.86;46.28;100912.25;4983723;28;99576;-71
2024/03/12 08:37:59;;;;;;;10.68;6.53;;;;;;;16.77;45.96;100910.97;4983781;28;97845;-72
2024/03/12 08:40:26;;;;;;;10.35;6.28;;;;;;;16.50;46.50;100905.41;4984820;28;98965;-71
2024/03/12 08:42:52;;;;;;;12.93;6.63;;;;;;;16.14;47.97;100913.69;4984131;28;99065;-71
2024/03/12 08:45:21;;;;;;;12.55;6.25;;;;;;;16.29;47.44;100911.94;4988846;28;97953;-71
2024/03/12 08:47:48;;;;;;;15.73;9.25;;;;;;;16.39;47.45;100914.97;4988693;28;99072;-71
2024/03/12 08:50:15;;;;;;;12.27;6.43;;;;;;;16.81;46.15;100920.50;4984074;28;97548;-71
2024/03/12 08:52:42;;;;;;;18.83;6.45;;;;;;;16.96;45.81;100916.94;4988923;28;100175;-72
2024/03/12 08:55:10;;;;;;;9.88;5.75;;;;;;;17.20;45.56;100922.63;4986122;28;97670;-72
2024/03/12 08:57:36;;;;;;;12.95;6.03;;;;;;;17.55;44.34;100925.84;4985516;28;98338;-72
2024/03/12 09:00:10;;;;;;;7.65;4.88;;;;;;;17.38;44.25;100923.34;4979352;28;98798;-71
2024/03/12 09:02:37;;;;;;;9.35;5.43;;;;;;;17.28;44.48;100924.84;4985140;28;96972;-72
2024/03/12 09:05:07;;;;;;;14.35;5.65;;;;;;;17.47;43.82;100928.97;4990289;28;97227;-72
2024/03/12 09:07:37;;;;;;;10.40;5.10;;;;;;;17.56;43.93;100930.22;4987345;28;99607;-73
2024/03/12 09:10:05;;;;;;;11.63;4.80;;;;;;;17.53;43.79;100933.94;4985702;28;100326;-71
2024/03/12 09:12:33;;;;;;;5.50;4.07;;;;;;;17.17;44.22;100932.66;4990815;28;97139;-71
2024/03/12 09:14:59;;;;;;;9.07;4.35;;;;;;;16.96;44.66;100932.97;4981819;28;97450;-71
2024/03/12 09:17:27;;;;;;;9.65;4.05;;;;;;;16.71;45.59;100930.03;4987274;28;99603;-72
2024/03/12 09:19:54;;;;;;;7.43;4.50;;;;;;;16.36;46.51;100934.66;4989102;28;97784;-72
2024/03/12 09:22:22;;;;;;;6.40;3.65;;;;;;;16.10;46.76;100936.09;4991187;28;96841;-72
2024/03/12 09:24:49;;;;;;;5.00;3.72;;;;;;;15.61;48.21;100937.06;4990334;28;98254;-71
2024/03/12 09:27:16;;;;;;;5.50;3.70;;;;;;;15.40;49.60;100947.88;4987774;28;101033;-71
2024/03/12 09:29:43;;;;;;;6.47;3.88;;;;;;;15.70;48.32;100940.09;4987221;28;99009;-72
2024/03/12 09:32:10;;;;;;;6.85;4.25;;;;;;;15.30;49.60;100940.41;4991430;28;97167;-72
2024/03/12 09:34:39;;;;;;;7.80;4.75;;;;;;;15.98;48.12;100941.25;4991679;28;97887;-71
2024/03/12 09:37:06;;;;;;;5.03;3.53;;;;;;;15.45;49.53;100942.28;4990471;28;99264;-70
2024/03/12 09:39:34;;;;;;;9.35;4.03;;;;;;;15.76;49.11;100934.41;4989602;28;98263;-71
2024/03/12 09:42:01;;;;;;;7.18;3.75;;;;;;;16.49;47.47;100937.47;4991634;28;98461;-72
2024/03/12 09:44:28;;;;;;;10.88;3.88;;;;;;;16.38;46.88;100931.91;4993071;28;96789;-71
2024/03/12 09:46:56;;;;;;;8.93;4.47;;;;;;;16.71;46.15;100936.22;4988142;28;99018;-70
2024/03/12 09:49:23;;;;;;;7.03;3.92;;;;;;;16.93;45.42;100937.63;4992311;28;99476;-70
2024/03/12 09:51:50;;;;;;;15.35;3.88;;;;;;;17.10;44.92;100935.69;4986591;28;96851;-70
2024/03/12 09:54:17;;;;;;;9.23;4.75;;;;;;;17.33;44.16;100936.97;4986453;28;98220;-70
2024/03/12 09:56:43;;;;;;;6.88;4.03;;;;;;;17.54;43.97;100945.50;4989979;28;99091;-72
2024/03/12 09:59:10;;;;;;;9.25;4.10;;;;;;;17.62;43.31;100943.25;4991208;28;98921;-71
2024/03/12 10:01:38;;;;;;;11.95;4.32;;;;;;;17.00;45.11;100941.69;4990055;28;96939;-71
2024/03/12 10:04:06;;;;;;;9.32;4.65;;;;;;;17.36;44.43;100941.28;4992367;28;97422;-71
2024/03/12 10:06:33;;;;;;;10.80;4.38;;;;;;;17.64;43.25;100952.03;4992348;28;97932;-71
2024/03/12 10:08:59;;;;;;;6.25;3.90;;;;;;;17.87;43.25;100948.78;4990448;28;101184;-70
2024/03/12 10:11:26;;;;;;;7.10;4.00;;;;;;;18.42;41.70;100945.28;4982588;28;97804;-70
2024/03/12 10:13:55;;;;;;;13.13;4.32;;;;;;;18.53;41.00;100942.75;4988559;28;97058;-71
2024/03/12 10:16:24;;;;;;;9.07;3.97;;;;;;;18.90;40.54;100948.41;4991023;28;99886;-71
2024/03/12 10:19:09;;;;;;;9.73;4.15;;;;;;;19.02;39.68;100944.91;4987646;28;99612;-72
2024/03/12 10:21:36;;;;;;;6.75;3.97;;;;;;;19.17;39.34;100948.34;4992403;28;96793;-73
2024/03/12 10:24:13;;;;;;;7.90;3.80;;;;;;;18.80;39.36;100949.97;4983805;28;98458;-73
2024/03/12 10:26:40;;;;;;;6.80;3.75;;;;;;;18.03;41.19;100953.19;4986471;28;97752;-73
2024/03/12 10:29:10;;;;;;;9.57;3.42;;;;;;;17.68;42.14;100950.88;4986699;28;99151;-73
2024/03/12 10:31:39;;;;;;;7.88;3.88;;;;;;;17.67;42.36;100951.81;4985912;28;96860;-73
2024/03/12 10:34:13;;;;;;;7.75;3.65;;;;;;;18.03;40.91;100948.69;4985491;28;97056;-73
2024/03/12 10:36:42;;;;;;;5.88;3.10;;;;;;;17.34;42.09;100944.03;4979550;28;99209;-73
2024/03/12 10:39:12;;;;;;;13.02;4.10;;;;;;;17.16;43.04;100955.81;4986105;28;101402;-73
2024/03/12 10:41:39;;;;;;;6.82;3.65;;;;;;;17.07;43.96;100951.00;4983149;28;96820;-75
2024/03/12 10:44:10;;;;;;;8.70;4.25;;;;;;;17.59;42.80;100959.41;4984252;28;98175;-72
2024/03/12 10:46:38;;;;;;;11.88;4.47;;;;;;;18.03;41.79;100948.69;4988004;28;97805;-72
2024/03/12 10:49:09;;;;;;;6.60;3.58;;;;;;;18.15;41.13;100952.41;4984883;28;99466;-72
2024/03/12 10:51:40;;;;;;;10.25;3.92;;;;;;;18.62;40.26;100944.88;4986307;28;96797;-72
2024/03/12 10:54:11;;;;;;;10.18;3.83;;;;;;;18.68;40.12;100949.81;4983274;28;97107;-73
2024/03/12 10:56:38;;;;;;;11.45;3.83;;;;;;;18.81;39.22;100941.84;4983516;28;99386;-71
2024/03/12 10:59:06;;;;;;;8.70;3.80;;;;;;;19.09;38.65;100954.25;4984926;28;98375;-71
2024/03/12 11:01:33;;;;;;;7.18;3.10;;;;;;;18.90;38.48;100943.06;4986709;28;97093;-71
2024/03/12 11:04:01;;;;;;;20.77;9.07;;;;;;;18.81;38.97;100940.97;4986391;28;97720;-72
2024/03/12 11:06:28;;;;;;;6.88;3.60;;;;;;;18.86;38.81;100950.41;4981175;28;98945;-72
2024/03/12 11:08:58;;;;;;;5.88;3.60;;;;;;;19.09;38.20;100946.22;4984729;28;101303;-72
2024/03/12 11:11:26;;;;;;;16.25;3.95;;;;;;;18.93;37.94;100937.47;4984408;28;97311;-72
2024/03/12 11:13:53;;;;;;;8.63;3.83;;;;;;;18.89;38.01;100944.00;4980549;28;98877;-72
2024/03/12 11:16:20;;;;;;;7.43;3.92;;;;;;;19.19;37.74;100943.75;4986493;28;99210;-72
2024/03/12 11:18:48;;;;;;;6.13;3.20;;;;;;;18.85;38.06;100942.47;4984468;28;99959;-72
2024/03/12 11:21:19;;;;;;;9.13;4.53;;;;;;;17.87;39.97;100938.09;4987386;28;97266;-73
2024/03/12 11:23:46;;;;;;;7.80;3.33;;;;;;;17.90;40.56;100937.91;4977417;28;97602;-71
2024/03/12 11:26:27;;;;;;;6.93;4.50;;;;;;;18.49;39.70;100933.22;4983646;28;99924;-73
2024/03/12 11:28:53;;;;;;;7.32;4.00;;;;;;;18.31;39.79;100937.94;4984991;28;101462;-72
2024/03/12 11:31:22;;;;;;;5.20;4.20;;;;;;;17.88;41.06;100941.63;4985289;28;96930;-71
2024/03/12 11:33:51;;;;;;;8.85;3.33;;;;;;;18.47;39.64;100932.44;4983045;28;97681;-73
2024/03/12 11:36:28;;;;;;;8.15;3.72;;;;;;;18.62;39.32;100936.84;4979108;28;102319;-73